Time;durP1;ratioP1;P1;durP2;ratioP2;P2;SDS_P1;SDS_P2;PMS_P1;PMS_P2;Temp;Humidity;BMP_temperature;BMP_pressure;BME280_temperature;BME280_humidity;BME280_pressure;Samples;Min_cycle;Max_cycle;Signal;HPM_P1;HPM_P2
2022/07/27 00:00:12;;;;;;;3.28;1.67;;;;;;;;;;4991934;28;20092;-68
2022/07/27 00:02:57;;;;;;;4.20;1.50;;;;;;;;;;4993223;28;20038;-69
2022/07/27 00:05:43;;;;;;;1.92;1.25;;;;;;;;;;4995560;28;20029;-68
2022/07/27 00:08:29;;;;;;;3.25;1.50;;;;;;;;;;4956801;28;20053;-69
2022/07/27 00:11:14;;;;;;;4.82;2.45;;;;;;;;;;4938156;28;20113;-68
2022/07/27 00:14:00;;;;;;;3.30;1.65;;;;;;;;;;4974492;28;20041;-68
2022/07/27 00:16:46;;;;;;;3.05;1.70;;;;;;;;;;4963056;28;20455;-68
2022/07/27 00:19:31;;;;;;;6.13;1.30;;;;;;;;;;4952998;28;20023;-68
2022/07/27 00:22:17;;;;;;;5.43;1.60;;;;;;;;;;4963777;28;20058;-68
2022/07/27 00:25:03;;;;;;;5.22;1.75;;;;;;;;;;4958831;28;20394;-69
2022/07/27 00:27:48;;;;;;;4.82;1.83;;;;;;;;;;4951779;28;20522;-61
2022/07/27 00:30:34;;;;;;;3.60;2.05;;;;;;;;;;4938384;29;20038;-54
2022/07/27 00:33:20;;;;;;;2.78;1.70;;;;;;;;;;4937051;28;20477;-58
2022/07/27 00:36:05;;;;;;;3.83;1.90;;;;;;;;;;4984065;28;20037;-56
2022/07/27 00:38:51;;;;;;;2.22;1.50;;;;;;;;;;4963916;28;20051;-55
2022/07/27 00:41:37;;;;;;;2.85;1.80;;;;;;;;;;4967411;28;20042;-56
2022/07/27 00:44:29;;;;;;;2.60;1.70;;;;;;;;;;4960142;28;20042;-68
2022/07/27 00:47:14;;;;;;;3.38;1.80;;;;;;;;;;4943794;28;20034;-68
2022/07/27 00:50:00;;;;;;;3.63;1.98;;;;;;;;;;4939573;28;20444;-69
2022/07/27 00:52:47;;;;;;;2.90;1.90;;;;;;;;;;4962316;28;20023;-72
2022/07/27 00:55:33;;;;;;;4.90;1.77;;;;;;;;;;4979850;28;20362;-70
2022/07/27 00:58:18;;;;;;;3.72;1.70;;;;;;;;;;5004651;28;20037;-69
2022/07/27 01:01:04;;;;;;;3.50;1.50;;;;;;;;;;4994549;28;20030;-68
2022/07/27 01:03:50;;;;;;;2.67;1.27;;;;;;;;;;5013050;28;20488;-63
2022/07/27 01:06:35;;;;;;;3.80;1.58;;;;;;;;;;5011230;28;20026;-64
2022/07/27 01:12:29;;;;;;;3.03;1.35;;;;;;;;;;4988396;28;20049;-64
2022/07/27 01:15:15;;;;;;;3.90;2.00;;;;;;;;;;4962593;28;20470;-64
2022/07/27 01:18:01;;;;;;;2.33;1.50;;;;;;;;;;5007219;28;20041;-64
2022/07/27 01:20:47;;;;;;;2.80;1.52;;;;;;;;;;5010513;28;20038;-70
2022/07/27 01:23:33;;;;;;;2.38;1.50;;;;;;;;;;4984572;28;20124;-62
2022/07/27 01:26:19;;;;;;;2.05;1.70;;;;;;;;;;4950248;28;20061;-63
2022/07/27 01:29:04;;;;;;;2.58;1.60;;;;;;;;;;4964882;28;20030;-63
2022/07/27 01:31:50;;;;;;;4.55;1.65;;;;;;;;;;5012778;28;20079;-63
2022/07/27 01:34:36;;;;;;;5.95;2.08;;;;;;;;;;5018604;28;20534;-64
2022/07/27 01:37:21;;;;;;;5.72;1.77;;;;;;;;;;5031149;28;20095;-56
2022/07/27 01:40:07;;;;;;;4.07;1.75;;;;;;;;;;5034642;28;20079;-67
2022/07/27 01:42:53;;;;;;;2.83;1.88;;;;;;;;;;5030245;28;20037;-59
2022/07/27 01:45:38;;;;;;;3.13;1.80;;;;;;;;;;5037898;28;20111;-59
2022/07/27 01:48:24;;;;;;;2.35;1.70;;;;;;;;;;5039007;28;20037;-55
2022/07/27 01:51:10;;;;;;;3.60;1.92;;;;;;;;;;5025238;28;20045;-58
2022/07/27 01:53:55;;;;;;;5.10;2.00;;;;;;;;;;5036829;28;20492;-61
2022/07/27 01:56:41;;;;;;;3.42;2.00;;;;;;;;;;5024498;28;20152;-52
2022/07/27 01:59:27;;;;;;;4.57;1.88;;;;;;;;;;5034243;28;20044;-65
2022/07/27 02:02:14;;;;;;;3.53;1.80;;;;;;;;;;5032623;28;20087;-64
2022/07/27 02:05:00;;;;;;;4.20;2.40;;;;;;;;;;5029692;28;20043;-64
2022/07/27 02:07:46;;;;;;;4.30;2.05;;;;;;;;;;5026115;28;20472;-64
2022/07/27 02:10:32;;;;;;;4.07;1.80;;;;;;;;;;5011409;28;20033;-63
2022/07/27 02:13:17;;;;;;;4.22;2.03;;;;;;;;;;5022971;28;20073;-64
2022/07/27 02:16:03;;;;;;;7.07;2.45;;;;;;;;;;5034680;28;20037;-67
2022/07/27 02:18:49;;;;;;;4.38;2.15;;;;;;;;;;5033713;28;20045;-69
2022/07/27 02:21:34;;;;;;;3.67;1.70;;;;;;;;;;5016040;28;20388;-69
2022/07/27 02:24:20;;;;;;;4.80;2.10;;;;;;;;;;5016606;28;20033;-69
2022/07/27 02:27:05;;;;;;;3.90;2.17;;;;;;;;;;5021458;28;20128;-69
2022/07/27 02:29:52;;;;;;;4.70;2.05;;;;;;;;;;5005062;28;20022;-69
2022/07/27 02:32:39;;;;;;;4.18;2.38;;;;;;;;;;5023573;28;20550;-58
2022/07/27 02:35:25;;;;;;;4.47;2.30;;;;;;;;;;5018052;28;20026;-68
2022/07/27 02:38:10;;;;;;;3.67;2.28;;;;;;;;;;5012783;28;20444;-69
2022/07/27 02:40:56;;;;;;;4.65;2.00;;;;;;;;;;4988207;28;20042;-69
2022/07/27 02:43:42;;;;;;;3.53;2.15;;;;;;;;;;5024198;28;26349;-71
2022/07/27 02:46:28;;;;;;;3.90;2.38;;;;;;;;;;5016248;28;20128;-69
2022/07/27 02:49:14;;;;;;;5.22;1.98;;;;;;;;;;5020207;28;20061;-69
2022/07/27 02:51:59;;;;;;;3.22;2.35;;;;;;;;;;5021717;28;20045;-69
2022/07/27 02:54:45;;;;;;;2.78;2.22;;;;;;;;;;5027686;28;20090;-66
2022/07/27 02:57:33;;;;;;;4.07;2.30;;;;;;;;;;5013969;28;20034;-67
2022/07/27 03:00:18;;;;;;;5.53;2.72;;;;;;;;;;4988081;28;20041;-69
2022/07/27 03:03:04;;;;;;;6.18;2.50;;;;;;;;;;5025676;28;20068;-68
2022/07/27 03:05:49;;;;;;;3.65;2.47;;;;;;;;;;5029548;28;20104;-68
2022/07/27 03:08:35;;;;;;;3.65;2.50;;;;;;;;;;5015920;28;20465;-68
2022/07/27 03:11:21;;;;;;;4.75;2.38;;;;;;;;;;5001034;28;20116;-59
2022/07/27 03:14:06;;;;;;;4.00;2.50;;;;;;;;;;5015261;28;20038;-69
2022/07/27 03:16:52;;;;;;;4.85;2.72;;;;;;;;;;5026432;28;20029;-70
2022/07/27 03:19:37;;;;;;;8.48;2.20;;;;;;;;;;5019638;28;20083;-68
2022/07/27 03:22:23;;;;;;;4.38;2.63;;;;;;;;;;5024995;28;20021;-69
2022/07/27 03:25:09;;;;;;;3.40;2.10;;;;;;;;;;5018197;28;20047;-67
2022/07/27 03:27:54;;;;;;;4.97;2.47;;;;;;;;;;5027742;28;20034;-68
2022/07/27 03:30:40;;;;;;;4.95;2.25;;;;;;;;;;5019060;28;20056;-59
2022/07/27 03:33:25;;;;;;;9.27;3.25;;;;;;;;;;5019178;28;20028;-64
2022/07/27 03:36:11;;;;;;;4.88;2.72;;;;;;;;;;5035304;28;20033;-64
2022/07/27 03:38:57;;;;;;;5.85;2.50;;;;;;;;;;5037817;28;20115;-63
2022/07/27 03:41:42;;;;;;;3.83;2.30;;;;;;;;;;5039921;28;20036;-64
2022/07/27 03:44:28;;;;;;;6.45;2.60;;;;;;;;;;5036010;28;20025;-63
2022/07/27 03:47:13;;;;;;;4.35;3.03;;;;;;;;;;5008029;28;20037;-66
2022/07/27 03:49:59;;;;;;;8.73;2.80;;;;;;;;;;5021378;28;20413;-59
2022/07/27 03:52:45;;;;;;;4.38;2.08;;;;;;;;;;5026813;28;20056;-59
2022/07/27 03:55:30;;;;;;;5.10;2.58;;;;;;;;;;5005797;28;20476;-58
2022/07/27 03:58:16;;;;;;;5.38;2.67;;;;;;;;;;5016799;28;20063;-60
2022/07/27 04:01:02;;;;;;;4.40;2.17;;;;;;;;;;5011004;28;20075;-60
2022/07/27 04:03:47;;;;;;;3.72;2.55;;;;;;;;;;5017859;28;20035;-60
2022/07/27 04:06:33;;;;;;;3.58;2.50;;;;;;;;;;5015013;28;20033;-68
2022/07/27 04:09:18;;;;;;;5.40;2.90;;;;;;;;;;4996255;28;20108;-64
2022/07/27 04:12:04;;;;;;;6.30;2.67;;;;;;;;;;5017087;28;20088;-64
2022/07/27 04:14:50;;;;;;;4.20;2.45;;;;;;;;;;5027408;28;20029;-64
2022/07/27 04:17:35;;;;;;;3.90;2.65;;;;;;;;;;5017431;28;20029;-65
2022/07/27 04:20:21;;;;;;;3.88;2.30;;;;;;;;;;5010981;28;20026;-64
2022/07/27 04:23:06;;;;;;;4.03;2.80;;;;;;;;;;4991490;28;20116;-68
2022/07/27 04:25:52;;;;;;;3.38;2.45;;;;;;;;;;5000448;28;20088;-68
2022/07/27 04:28:38;;;;;;;4.50;2.35;;;;;;;;;;5000991;28;20509;-69
2022/07/27 04:31:24;;;;;;;5.15;3.10;;;;;;;;;;4988199;28;20061;-69
2022/07/27 04:34:09;;;;;;;5.20;2.63;;;;;;;;;;4998155;28;20400;-70
2022/07/27 04:36:55;;;;;;;6.20;2.60;;;;;;;;;;4992613;28;20038;-69
2022/07/27 04:39:41;;;;;;;4.97;2.47;;;;;;;;;;4994582;28;20595;-69
2022/07/27 04:42:27;;;;;;;4.00;2.83;;;;;;;;;;5029627;28;20500;-59
2022/07/27 04:45:12;;;;;;;4.25;2.72;;;;;;;;;;5019776;28;20219;-69
2022/07/27 04:47:58;;;;;;;5.78;2.92;;;;;;;;;;4997146;28;20125;-69
2022/07/27 04:50:44;;;;;;;3.22;2.30;;;;;;;;;;4988163;28;20088;-67
2022/07/27 04:53:30;;;;;;;6.35;2.97;;;;;;;;;;5001902;28;20045;-68
2022/07/27 04:56:15;;;;;;;4.10;2.67;;;;;;;;;;5001366;28;20100;-69
2022/07/27 04:59:01;;;;;;;4.82;2.60;;;;;;;;;;4978580;28;20129;-68
2022/07/27 05:01:47;;;;;;;4.63;2.40;;;;;;;;;;5016983;28;20141;-66
2022/07/27 05:04:32;;;;;;;4.95;2.35;;;;;;;;;;4994736;28;20077;-63
2022/07/27 05:07:18;;;;;;;6.45;2.72;;;;;;;;;;5009176;28;20464;-63
2022/07/27 05:10:04;;;;;;;5.07;2.60;;;;;;;;;;4989477;28;20425;-65
2022/07/27 05:12:49;;;;;;;5.05;2.88;;;;;;;;;;5005111;28;20033;-61
2022/07/27 05:15:36;;;;;;;6.45;2.78;;;;;;;;;;5030711;28;20037;-63
2022/07/27 05:18:22;;;;;;;7.85;2.90;;;;;;;;;;5033732;28;20041;-61
2022/07/27 05:21:08;;;;;;;4.88;2.85;;;;;;;;;;5032785;28;20709;-60
2022/07/27 05:23:54;;;;;;;6.78;2.92;;;;;;;;;;5036155;28;20112;-63
2022/07/27 05:26:40;;;;;;;6.07;2.45;;;;;;;;;;5032215;28;20526;-63
2022/07/27 05:29:26;;;;;;;4.15;2.60;;;;;;;;;;5034259;28;20037;-65
2022/07/27 05:32:11;;;;;;;7.15;2.95;;;;;;;;;;5029002;28;20435;-72
2022/07/27 05:34:57;;;;;;;5.47;3.15;;;;;;;;;;5037218;28;20038;-72
2022/07/27 05:37:42;;;;;;;6.95;2.90;;;;;;;;;;5028650;28;20032;-67
2022/07/27 05:40:28;;;;;;;5.15;2.75;;;;;;;;;;5026400;28;20029;-76
2022/07/27 05:43:14;;;;;;;5.35;2.67;;;;;;;;;;5017297;28;20108;-71
2022/07/27 05:45:59;;;;;;;5.93;3.00;;;;;;;;;;5010667;28;20062;-72
2022/07/27 05:48:45;;;;;;;6.45;3.40;;;;;;;;;;5014346;28;20037;-69
2022/07/27 05:51:30;;;;;;;5.88;3.03;;;;;;;;;;5016116;28;20046;-70
2022/07/27 05:54:17;;;;;;;5.55;2.55;;;;;;;;;;5008357;28;20046;-71
2022/07/27 05:57:03;;;;;;;4.38;2.70;;;;;;;;;;4998363;28;20468;-72
2022/07/27 05:59:53;;;;;;;5.45;3.15;;;;;;;;;;5028652;28;20123;-71
2022/07/27 06:02:39;;;;;;;5.22;2.95;;;;;;;;;;5020111;28;20034;-69
2022/07/27 06:05:25;;;;;;;10.40;3.65;;;;;;;;;;4997421;28;20429;-69
2022/07/27 06:08:10;;;;;;;5.35;2.63;;;;;;;;;;4993018;28;20072;-69
2022/07/27 06:10:56;;;;;;;5.45;2.90;;;;;;;;;;4997349;28;20025;-70
2022/07/27 06:13:42;;;;;;;6.43;2.80;;;;;;;;;;4985044;28;20113;-69
2022/07/27 06:16:27;;;;;;;5.00;3.45;;;;;;;;;;4971202;28;20030;-67
2022/07/27 06:19:13;;;;;;;6.13;2.95;;;;;;;;;;4975506;28;20030;-65
2022/07/27 06:21:58;;;;;;;7.10;3.67;;;;;;;;;;4984917;28;20042;-65
2022/07/27 06:24:44;;;;;;;6.20;3.20;;;;;;;;;;4957598;28;20466;-66
2022/07/27 06:27:29;;;;;;;10.50;3.03;;;;;;;;;;4960307;28;20161;-66
2022/07/27 06:30:16;;;;;;;4.97;2.90;;;;;;;;;;4955140;28;20033;-65
2022/07/27 06:33:05;;;;;;;5.63;3.40;;;;;;;;;;4993027;28;20121;-63
2022/07/27 06:35:51;;;;;;;6.10;3.25;;;;;;;;;;5001097;28;20037;-70
2022/07/27 06:38:36;;;;;;;7.18;3.28;;;;;;;;;;5033983;28;20068;-70
2022/07/27 06:41:22;;;;;;;6.18;3.20;;;;;;;;;;5002079;28;20085;-68
2022/07/27 06:44:08;;;;;;;7.82;2.90;;;;;;;;;;4987238;28;20061;-69
2022/07/27 06:46:53;;;;;;;5.78;3.42;;;;;;;;;;4975199;28;20463;-67
2022/07/27 06:49:39;;;;;;;9.63;3.05;;;;;;;;;;5017115;28;20041;-68
2022/07/27 06:52:24;;;;;;;8.45;3.20;;;;;;;;;;5030924;28;20028;-70
2022/07/27 06:55:10;;;;;;;5.60;3.30;;;;;;;;;;5004796;28;20030;-66
2022/07/27 06:57:56;;;;;;;11.13;3.30;;;;;;;;;;4965591;28;20070;-65
2022/07/27 07:00:42;;;;;;;5.60;2.97;;;;;;;;;;4945087;28;20055;-69
2022/07/27 07:03:28;;;;;;;6.20;3.15;;;;;;;;;;4923859;29;20147;-66
2022/07/27 07:06:14;;;;;;;6.07;3.03;;;;;;;;;;4927631;28;20027;-65
2022/07/27 07:08:59;;;;;;;6.97;3.13;;;;;;;;;;4939372;28;20027;-67
2022/07/27 07:11:45;;;;;;;6.63;2.92;;;;;;;;;;4935905;28;20023;-63
2022/07/27 07:14:30;;;;;;;7.82;3.17;;;;;;;;;;4951232;28;20031;-62
2022/07/27 07:17:16;;;;;;;6.50;2.80;;;;;;;;;;4968095;28;20042;-64
2022/07/27 07:20:03;;;;;;;3.80;2.90;;;;;;;;;;4965153;28;20068;-64
2022/07/27 07:22:49;;;;;;;6.90;3.60;;;;;;;;;;4959122;28;20034;-64
2022/07/27 07:25:34;;;;;;;5.40;2.85;;;;;;;;;;4949199;28;20027;-65
2022/07/27 07:28:20;;;;;;;4.93;3.13;;;;;;;;;;4936172;28;20035;-61
2022/07/27 07:31:06;;;;;;;4.60;2.92;;;;;;;;;;4930512;28;20029;-61
2022/07/27 07:33:52;;;;;;;4.15;2.70;;;;;;;;;;4958271;28;20035;-62
2022/07/27 07:36:37;;;;;;;4.65;2.92;;;;;;;;;;4962750;28;20034;-62
2022/07/27 07:39:23;;;;;;;5.85;2.60;;;;;;;;;;4963299;28;20023;-61
2022/07/27 07:42:08;;;;;;;5.70;3.15;;;;;;;;;;4927353;28;20035;-62
2022/07/27 07:44:54;;;;;;;4.95;3.05;;;;;;;;;;4929260;29;20126;-61
2022/07/27 07:47:40;;;;;;;4.82;2.90;;;;;;;;;;4941061;28;20510;-64
2022/07/27 07:50:26;;;;;;;7.32;3.00;;;;;;;;;;4953558;28;20371;-68
2022/07/27 07:53:13;;;;;;;7.32;2.97;;;;;;;;;;4973218;28;20031;-70
2022/07/27 07:55:58;;;;;;;4.85;3.30;;;;;;;;;;4971834;28;20112;-70
2022/07/27 07:58:44;;;;;;;7.03;3.17;;;;;;;;;;4980381;28;20063;-71
2022/07/27 08:01:30;;;;;;;6.55;3.10;;;;;;;;;;4984746;28;20053;-68
2022/07/27 08:04:15;;;;;;;5.78;2.85;;;;;;;;;;4990882;28;20034;-66
2022/07/27 08:07:04;;;;;;;4.18;2.78;;;;;;;;;;4996327;28;20034;-65
2022/07/27 08:09:50;;;;;;;7.05;3.20;;;;;;;;;;4995841;28;20117;-66
2022/07/27 08:12:36;;;;;;;7.20;2.95;;;;;;;;;;4994010;28;20161;-67
2022/07/27 08:15:22;;;;;;;5.50;3.60;;;;;;;;;;5014377;28;21602;-66
2022/07/27 08:18:08;;;;;;;9.65;3.13;;;;;;;;;;5026221;28;20041;-65
2022/07/27 08:20:54;;;;;;;3.47;2.78;;;;;;;;;;5021676;28;20112;-67
2022/07/27 08:23:39;;;;;;;5.78;2.85;;;;;;;;;;5020458;28;20488;-63
2022/07/27 08:26:25;;;;;;;6.03;2.80;;;;;;;;;;5021309;28;20029;-69
2022/07/27 08:29:11;;;;;;;4.18;2.90;;;;;;;;;;5003108;28;20072;-70
2022/07/27 08:31:56;;;;;;;7.10;3.10;;;;;;;;;;5013507;28;20535;-70
2022/07/27 08:34:42;;;;;;;6.03;3.30;;;;;;;;;;5002621;28;20037;-72
2022/07/27 08:37:28;;;;;;;6.53;3.47;;;;;;;;;;5016809;28;20384;-71
2022/07/27 08:40:14;;;;;;;5.28;3.13;;;;;;;;;;5007914;28;20041;-71
2022/07/27 08:43:00;;;;;;;6.38;3.10;;;;;;;;;;5002979;28;20108;-63
2022/07/27 08:45:56;;;;;;;7.03;2.97;;;;;;;;;;5016914;28;20033;-63
2022/07/27 08:48:42;;;;;;;4.78;2.92;;;;;;;;;;5002425;28;20033;-61
2022/07/27 08:51:28;;;;;;;4.88;3.15;;;;;;;;;;4982791;28;20076;-62
2022/07/27 08:54:14;;;;;;;6.43;3.50;;;;;;;;;;4993063;28;20129;-61
2022/07/27 08:56:59;;;;;;;7.38;2.75;;;;;;;;;;4984797;28;20500;-63
2022/07/27 08:59:45;;;;;;;4.18;2.67;;;;;;;;;;4995901;28;20037;-68
2022/07/27 09:02:31;;;;;;;6.20;3.40;;;;;;;;;;5003136;28;20030;-63
2022/07/27 09:05:16;;;;;;;7.57;3.33;;;;;;;;;;5014045;28;20040;-63
2022/07/27 09:08:13;;;;;;;3.55;2.70;;;;;;;;;;5006459;28;20026;-62
2022/07/27 09:10:59;;;;;;;7.90;3.30;;;;;;;;;;5003234;28;20033;-62
2022/07/27 09:13:45;;;;;;;8.48;3.10;;;;;;;;;;4997122;28;20034;-66
2022/07/27 09:16:30;;;;;;;4.63;3.05;;;;;;;;;;4997001;28;20381;-62
2022/07/27 09:19:16;;;;;;;4.82;2.60;;;;;;;;;;4999376;28;20046;-68
2022/07/27 09:22:01;;;;;;;4.97;3.03;;;;;;;;;;5011414;28;20388;-66
2022/07/27 09:25:03;;;;;;;7.93;3.40;;;;;;;;;;5012039;28;20036;-66
2022/07/27 09:27:52;;;;;;;6.55;3.15;;;;;;;;;;5017343;28;20470;-65
2022/07/27 09:30:41;;;;;;;7.13;2.75;;;;;;;;;;5015990;28;20029;-66
2022/07/27 09:33:27;;;;;;;5.63;2.60;;;;;;;;;;5007024;28;20132;-65
2022/07/27 09:36:13;;;;;;;3.72;2.75;;;;;;;;;;4998463;28;20049;-61
2022/07/27 09:39:04;;;;;;;7.95;3.25;;;;;;;;;;4979902;28;20038;-64
2022/07/27 09:41:51;;;;;;;4.10;2.60;;;;;;;;;;5002002;28;20065;-65
2022/07/27 09:44:41;;;;;;;3.22;2.17;;;;;;;;;;5013611;28;20345;-64
2022/07/27 09:47:28;;;;;;;4.90;2.70;;;;;;;;;;5031503;28;20075;-64
2022/07/27 09:50:17;;;;;;;8.30;2.58;;;;;;;;;;5024206;28;20037;-64
2022/07/27 09:53:10;;;;;;;7.32;2.72;;;;;;;;;;5026462;28;20044;-64
2022/07/27 09:56:08;;;;;;;4.63;2.88;;;;;;;;;;5008486;28;20461;-62
2022/07/27 09:58:55;;;;;;;5.85;2.75;;;;;;;;;;4988583;28;20074;-66
2022/07/27 10:01:41;;;;;;;5.50;2.78;;;;;;;;;;5006635;28;20040;-65
2022/07/27 10:04:26;;;;;;;4.57;2.75;;;;;;;;;;5012839;28;20477;-67
2022/07/27 10:07:13;;;;;;;7.53;3.13;;;;;;;;;;5010971;28;20374;-64
2022/07/27 10:10:00;;;;;;;6.07;2.65;;;;;;;;;;5017740;28;20121;-65
2022/07/27 10:12:47;;;;;;;3.22;2.38;;;;;;;;;;5017228;28;20033;-65
2022/07/27 10:15:32;;;;;;;6.20;2.80;;;;;;;;;;5021112;28;20499;-64
2022/07/27 10:18:21;;;;;;;5.18;2.88;;;;;;;;;;5017940;28;20095;-67
2022/07/27 10:21:08;;;;;;;7.90;3.35;;;;;;;;;;5019033;28;20053;-71
2022/07/27 10:23:54;;;;;;;15.05;2.80;;;;;;;;;;4996578;28;20041;-68
2022/07/27 10:26:40;;;;;;;6.35;2.88;;;;;;;;;;4971122;28;20033;-68
2022/07/27 10:29:26;;;;;;;6.15;3.22;;;;;;;;;;4967528;28;20052;-70
2022/07/27 10:32:21;;;;;;;4.20;2.45;;;;;;;;;;4963182;28;20046;-68
2022/07/27 10:35:27;;;;;;;3.97;2.80;;;;;;;;;;4970680;28;20053;-64
2022/07/27 10:38:15;;;;;;;5.95;3.15;;;;;;;;;;4958320;28;20042;-64
2022/07/27 10:41:19;;;;;;;7.13;3.00;;;;;;;;;;4950853;28;20118;-67
2022/07/27 10:44:17;;;;;;;4.43;2.45;;;;;;;;;;4950140;28;20047;-64
2022/07/27 10:47:03;;;;;;;10.30;2.55;;;;;;;;;;4987310;28;20450;-63
2022/07/27 10:49:48;;;;;;;7.70;2.75;;;;;;;;;;5005671;28;20034;-68
2022/07/27 10:52:41;;;;;;;8.45;3.03;;;;;;;;;;4972707;28;20539;-64
2022/07/27 10:55:30;;;;;;;6.47;3.15;;;;;;;;;;4970731;28;20034;-70
2022/07/27 10:58:15;;;;;;;8.55;3.22;;;;;;;;;;4986817;28;20044;-68
2022/07/27 11:01:06;;;;;;;5.63;2.42;;;;;;;;;;5011463;28;20038;-70
2022/07/27 11:03:52;;;;;;;6.05;2.58;;;;;;;;;;4990404;28;20045;-69
2022/07/27 11:06:37;;;;;;;6.40;3.25;;;;;;;;;;4985240;28;20428;-68
2022/07/27 11:09:33;;;;;;;4.32;2.88;;;;;;;;;;4948189;28;20039;-68
2022/07/27 11:12:19;;;;;;;3.97;2.30;;;;;;;;;;4932328;28;20399;-65
2022/07/27 11:15:05;;;;;;;4.07;1.73;;;;;;;;;;4950602;28;20031;-70
2022/07/27 11:17:51;;;;;;;4.38;2.30;;;;;;;;;;4955873;28;20039;-67
2022/07/27 11:20:36;;;;;;;5.38;2.20;;;;;;;;;;4978000;28;25502;-65
2022/07/27 11:23:22;;;;;;;3.80;2.00;;;;;;;;;;5002528;28;20533;-66
2022/07/27 11:26:07;;;;;;;2.33;2.03;;;;;;;;;;4973197;28;20038;-72
2022/07/27 11:28:53;;;;;;;5.43;2.50;;;;;;;;;;5008908;28;20039;-64
2022/07/27 11:31:40;;;;;;;7.32;2.65;;;;;;;;;;4961178;28;20058;-65
2022/07/27 11:34:30;;;;;;;3.88;2.55;;;;;;;;;;4972519;28;20053;-67
2022/07/27 11:37:18;;;;;;;2.75;1.83;;;;;;;;;;5005405;28;20630;-65
2022/07/27 11:40:04;;;;;;;3.25;2.00;;;;;;;;;;5003877;28;20029;-64
2022/07/27 11:42:50;;;;;;;5.68;2.35;;;;;;;;;;4999642;28;20037;-64
2022/07/27 11:45:38;;;;;;;4.50;2.30;;;;;;;;;;5008149;28;20076;-68
2022/07/27 11:48:24;;;;;;;3.47;1.70;;;;;;;;;;4999031;28;20107;-60
2022/07/27 11:51:09;;;;;;;3.42;1.85;;;;;;;;;;4980275;28;20074;-60
2022/07/27 11:54:00;;;;;;;3.05;1.95;;;;;;;;;;5002424;28;20037;-62
2022/07/27 11:56:46;;;;;;;4.25;2.50;;;;;;;;;;5011066;28;20033;-61
2022/07/27 11:59:36;;;;;;;2.67;1.80;;;;;;;;;;5004358;28;20105;-60
2022/07/27 12:02:24;;;;;;;3.95;2.35;;;;;;;;;;4996358;28;20108;-60
2022/07/27 12:05:10;;;;;;;3.45;2.28;;;;;;;;;;4968660;28;20097;-70
2022/07/27 12:07:55;;;;;;;3.05;2.10;;;;;;;;;;5001553;28;20030;-70
2022/07/27 12:10:59;;;;;;;6.18;2.22;;;;;;;;;;5007864;28;20079;-70
2022/07/27 12:13:45;;;;;;;5.10;2.35;;;;;;;;;;5006734;28;20389;-69
2022/07/27 12:16:31;;;;;;;3.78;1.92;;;;;;;;;;4987381;28;20029;-70
2022/07/27 12:19:20;;;;;;;2.72;1.88;;;;;;;;;;5014750;28;20374;-69
2022/07/27 12:22:06;;;;;;;3.45;1.88;;;;;;;;;;5014972;28;20384;-61
2022/07/27 12:24:53;;;;;;;6.00;2.00;;;;;;;;;;5016265;28;20033;-68
2022/07/27 12:27:38;;;;;;;10.40;2.30;;;;;;;;;;5004982;28;20124;-70
2022/07/27 12:30:30;;;;;;;2.72;1.80;;;;;;;;;;5009698;28;20502;-70
2022/07/27 12:33:29;;;;;;;1.95;1.60;;;;;;;;;;5021510;28;20049;-68
2022/07/27 12:36:15;;;;;;;;;;;;;;;;;;5021896;28;20045;-68
2022/07/27 12:39:00;;;;;;;3.05;1.70;;;;;;;;;;5008955;28;19947;-69
2022/07/27 12:41:46;;;;;;;2.40;1.67;;;;;;;;;;5021460;28;20025;-63
2022/07/27 12:44:34;;;;;;;2.75;1.58;;;;;;;;;;5028507;28;20037;-62
2022/07/27 12:50:27;;;;;;;4.45;1.73;;;;;;;;;;5023269;28;20129;-61
2022/07/27 12:53:13;;;;;;;3.10;1.55;;;;;;;;;;5026933;28;20036;-62
2022/07/27 12:56:00;;;;;;;2.72;1.48;;;;;;;;;;4988686;28;20033;-62
2022/07/27 12:58:59;;;;;;;3.72;1.65;;;;;;;;;;5023030;28;20037;-71
2022/07/27 13:01:45;;;;;;;2.15;1.55;;;;;;;;;;5018620;28;20107;-61
2022/07/27 13:04:30;;;;;;;3.53;1.85;;;;;;;;;;5012232;28;20088;-59
2022/07/27 13:07:17;;;;;;;4.28;1.45;;;;;;;;;;5024773;28;20384;-61
2022/07/27 13:10:03;;;;;;;6.03;1.77;;;;;;;;;;5030072;28;20036;-60
2022/07/27 13:12:49;;;;;;;2.05;1.50;;;;;;;;;;5034470;28;20401;-60
2022/07/27 13:15:35;;;;;;;1.60;1.23;;;;;;;;;;5036251;28;20036;-60
2022/07/27 13:18:21;;;;;;;2.63;1.60;;;;;;;;;;5023995;28;20048;-64
2022/07/27 13:21:06;;;;;;;2.28;1.60;;;;;;;;;;5027742;28;20037;-68
2022/07/27 13:23:52;;;;;;;4.80;1.73;;;;;;;;;;5018711;28;20381;-65
2022/07/27 13:26:39;;;;;;;1.75;1.50;;;;;;;;;;5033561;28;20113;-68
2022/07/27 13:29:25;;;;;;;4.20;1.60;;;;;;;;;;5033854;28;20059;-67
2022/07/27 13:32:11;;;;;;;2.40;1.88;;;;;;;;;;4991879;28;20029;-68
2022/07/27 13:34:56;;;;;;;4.00;1.67;;;;;;;;;;5025450;28;20037;-67
2022/07/27 13:37:42;;;;;;;3.45;1.90;;;;;;;;;;5036090;28;20131;-61
2022/07/27 13:40:28;;;;;;;3.60;1.88;;;;;;;;;;5034231;28;20033;-64
2022/07/27 13:43:13;;;;;;;3.15;1.90;;;;;;;;;;5027745;28;20065;-62
2022/07/27 13:45:59;;;;;;;2.50;1.50;;;;;;;;;;5033585;28;20033;-65
2022/07/27 13:48:45;;;;;;;5.55;1.77;;;;;;;;;;5042535;28;20025;-62
2022/07/27 13:51:30;;;;;;;4.28;1.50;;;;;;;;;;5019393;28;20075;-63
2022/07/27 13:54:16;;;;;;;2.58;1.75;;;;;;;;;;5012537;28;20053;-61
2022/07/27 13:57:02;;;;;;;3.35;1.75;;;;;;;;;;4998874;28;20543;-65
2022/07/27 13:59:47;;;;;;;2.70;1.35;;;;;;;;;;5020918;28;20068;-65
2022/07/27 14:02:33;;;;;;;1.83;1.60;;;;;;;;;;5027424;28;20033;-65
2022/07/27 14:05:18;;;;;;;2.03;1.52;;;;;;;;;;5010310;28;20354;-66
2022/07/27 14:08:04;;;;;;;4.55;1.83;;;;;;;;;;5005841;28;20484;-64
2022/07/27 14:10:51;;;;;;;3.55;1.35;;;;;;;;;;4983193;28;20050;-65
2022/07/27 14:13:37;;;;;;;2.45;1.38;;;;;;;;;;5012250;28;20113;-68
2022/07/27 14:16:22;;;;;;;2.28;1.60;;;;;;;;;;4987062;28;20457;-63
2022/07/27 14:19:08;;;;;;;1.77;1.40;;;;;;;;;;5023234;28;20037;-64
2022/07/27 14:21:53;;;;;;;4.30;2.03;;;;;;;;;;5038327;28;20039;-64
2022/07/27 14:24:39;;;;;;;2.03;1.50;;;;;;;;;;5031579;28;20103;-64
2022/07/27 14:27:25;;;;;;;6.20;2.25;;;;;;;;;;5025248;28;25348;-64
2022/07/27 14:30:10;;;;;;;6.15;2.05;;;;;;;;;;5029987;28;20029;-63
2022/07/27 14:33:01;;;;;;;4.57;1.80;;;;;;;;;;5033165;28;20488;-63
2022/07/27 14:35:47;;;;;;;2.67;1.73;;;;;;;;;;5025228;28;20038;-70
2022/07/27 14:38:33;;;;;;;3.65;1.92;;;;;;;;;;4999789;28;20038;-70
2022/07/27 14:41:19;;;;;;;3.88;1.90;;;;;;;;;;5007641;28;20487;-72
2022/07/27 14:44:06;;;;;;;3.67;1.80;;;;;;;;;;5003805;28;20030;-71
2022/07/27 14:46:51;;;;;;;4.30;2.58;;;;;;;;;;4991310;28;20060;-70
2022/07/27 14:49:37;;;;;;;1.50;1.40;;;;;;;;;;5000016;28;20028;-72
2022/07/27 14:52:23;;;;;;;5.03;2.00;;;;;;;;;;5021247;28;20037;-63
2022/07/27 14:55:08;;;;;;;2.55;1.58;;;;;;;;;;5037956;28;20468;-61
2022/07/27 14:57:54;;;;;;;3.90;1.77;;;;;;;;;;5034970;28;20049;-60
2022/07/27 15:00:40;;;;;;;3.22;1.60;;;;;;;;;;5009092;28;20041;-61
2022/07/27 15:03:25;;;;;;;2.70;1.80;;;;;;;;;;5036035;28;20041;-62
2022/07/27 15:06:11;;;;;;;2.40;1.52;;;;;;;;;;5018167;28;20395;-60
2022/07/27 15:08:57;;;;;;;3.72;1.88;;;;;;;;;;5013476;28;20033;-65
2022/07/27 15:11:42;;;;;;;2.38;1.80;;;;;;;;;;5013581;28;20030;-65
2022/07/27 15:14:28;;;;;;;3.38;1.50;;;;;;;;;;5014759;28;20025;-59
2022/07/27 15:17:14;;;;;;;3.63;1.75;;;;;;;;;;5032956;28;20030;-60
2022/07/27 15:19:59;;;;;;;3.45;1.42;;;;;;;;;;5036856;28;20123;-61
2022/07/27 15:22:45;;;;;;;2.10;1.70;;;;;;;;;;4994780;28;20037;-59
2022/07/27 15:25:31;;;;;;;2.28;1.48;;;;;;;;;;5004364;28;20091;-61
2022/07/27 15:28:16;;;;;;;2.22;1.58;;;;;;;;;;5023803;28;20157;-67
2022/07/27 15:31:02;;;;;;;5.80;2.28;;;;;;;;;;4995482;28;20036;-62
2022/07/27 15:33:48;;;;;;;1.52;1.20;;;;;;;;;;5003642;28;20025;-61
2022/07/27 15:36:33;;;;;;;2.38;1.42;;;;;;;;;;5027046;28;20120;-60
2022/07/27 15:39:20;;;;;;;2.97;1.52;;;;;;;;;;5009764;28;20048;-60
2022/07/27 15:42:07;;;;;;;2.53;1.65;;;;;;;;;;5026544;28;20045;-66
2022/07/27 15:44:52;;;;;;;4.32;1.60;;;;;;;;;;5031139;28;20421;-66
2022/07/27 15:47:38;;;;;;;4.03;1.50;;;;;;;;;;5019774;28;20361;-72
2022/07/27 15:50:24;;;;;;;6.88;1.63;;;;;;;;;;5007720;28;20406;-72
2022/07/27 15:53:10;;;;;;;2.15;1.52;;;;;;;;;;5021291;28;20373;-71
2022/07/27 15:55:56;;;;;;;3.55;1.77;;;;;;;;;;5019939;28;20029;-71
2022/07/27 15:58:41;;;;;;;4.30;1.70;;;;;;;;;;5001689;28;24758;-71
2022/07/27 16:01:27;;;;;;;3.42;1.55;;;;;;;;;;5000094;28;20375;-74
2022/07/27 16:04:13;;;;;;;3.83;1.60;;;;;;;;;;5034033;28;20049;-62
2022/07/27 16:06:58;;;;;;;3.85;1.85;;;;;;;;;;5024541;28;20434;-63
2022/07/27 16:09:44;;;;;;;4.53;2.00;;;;;;;;;;5035859;28;20033;-63
2022/07/27 16:12:29;;;;;;;4.40;2.15;;;;;;;;;;5023348;28;20029;-63
2022/07/27 16:15:15;;;;;;;3.10;1.70;;;;;;;;;;5019052;28;20053;-67
2022/07/27 16:18:01;;;;;;;2.50;1.60;;;;;;;;;;5028839;28;20128;-65
2022/07/27 16:20:46;;;;;;;5.57;2.22;;;;;;;;;;5027293;28;20052;-70
2022/07/27 16:23:32;;;;;;;3.30;1.60;;;;;;;;;;5010298;28;20487;-63
2022/07/27 16:26:18;;;;;;;2.97;1.55;;;;;;;;;;4993434;28;20081;-61
2022/07/27 16:29:03;;;;;;;3.15;1.30;;;;;;;;;;5004175;28;20080;-63
2022/07/27 16:31:49;;;;;;;3.05;1.52;;;;;;;;;;5013293;28;20384;-62
2022/07/27 16:34:35;;;;;;;3.63;1.67;;;;;;;;;;5004098;28;20500;-62
2022/07/27 16:37:21;;;;;;;2.60;1.50;;;;;;;;;;5013069;28;20468;-63
2022/07/27 16:40:07;;;;;;;4.97;1.98;;;;;;;;;;4988516;28;20548;-63
2022/07/27 16:42:52;;;;;;;7.28;2.33;;;;;;;;;;4985448;28;20528;-65